sensor_id;sensor_type;location;lat;lon;timestamp;P1;durP1;ratioP1;P2;durP2;ratioP2
13067;SDS011;6600;51.362;6.686;2022-12-07T00:02:20;3.70;;;2.87;;
13067;SDS011;6600;51.362;6.686;2022-12-07T00:04:45;5.47;;;3.10;;
13067;SDS011;6600;51.362;6.686;2022-12-07T00:07:10;5.27;;;3.20;;
13067;SDS011;6600;51.362;6.686;2022-12-07T00:09:36;3.30;;;2.57;;
13067;SDS011;6600;51.362;6.686;2022-12-07T00:12:01;4.50;;;3.20;;
13067;SDS011;6600;51.362;6.686;2022-12-07T00:14:26;4.90;;;2.73;;
13067;SDS011;6600;51.362;6.686;2022-12-07T00:16:52;6.07;;;2.83;;
13067;SDS011;6600;51.362;6.686;2022-12-07T00:19:17;7.33;;;3.77;;
13067;SDS011;6600;51.362;6.686;2022-12-07T00:21:43;4.97;;;3.17;;
13067;SDS011;6600;51.362;6.686;2022-12-07T00:24:09;4.17;;;2.63;;
13067;SDS011;6600;51.362;6.686;2022-12-07T00:26:36;3.97;;;2.50;;
13067;SDS011;6600;51.362;6.686;2022-12-07T00:29:24;5.27;;;3.70;;
13067;SDS011;6600;51.362;6.686;2022-12-07T00:31:49;4.03;;;2.80;;
13067;SDS011;6600;51.362;6.686;2022-12-07T00:34:19;4.30;;;2.93;;
13067;SDS011;6600;51.362;6.686;2022-12-07T00:36:45;7.73;;;3.30;;
13067;SDS011;6600;51.362;6.686;2022-12-07T00:39:11;6.23;;;3.80;;
13067;SDS011;6600;51.362;6.686;2022-12-07T00:41:37;5.73;;;2.67;;
13067;SDS011;6600;51.362;6.686;2022-12-07T00:44:02;8.00;;;2.80;;
13067;SDS011;6600;51.362;6.686;2022-12-07T00:46:28;9.03;;;3.07;;
13067;SDS011;6600;51.362;6.686;2022-12-07T00:48:53;7.70;;;3.57;;
13067;SDS011;6600;51.362;6.686;2022-12-07T00:51:20;5.40;;;2.73;;
13067;SDS011;6600;51.362;6.686;2022-12-07T00:53:48;6.43;;;3.63;;
13067;SDS011;6600;51.362;6.686;2022-12-07T00:56:20;5.17;;;3.23;;
13067;SDS011;6600;51.362;6.686;2022-12-07T01:01:18;5.13;;;2.77;;
13067;SDS011;6600;51.362;6.686;2022-12-07T01:03:44;4.53;;;3.30;;
13067;SDS011;6600;51.362;6.686;2022-12-07T01:06:09;3.93;;;3.37;;
13067;SDS011;6600;51.362;6.686;2022-12-07T01:08:40;3.03;;;2.70;;
13067;SDS011;6600;51.362;6.686;2022-12-07T01:11:06;4.17;;;2.97;;
13067;SDS011;6600;51.362;6.686;2022-12-07T01:13:33;5.17;;;3.10;;
13067;SDS011;6600;51.362;6.686;2022-12-07T01:16:00;5.10;;;3.47;;
13067;SDS011;6600;51.362;6.686;2022-12-07T01:18:30;5.03;;;3.47;;
13067;SDS011;6600;51.362;6.686;2022-12-07T01:20:57;4.90;;;3.10;;
13067;SDS011;6600;51.362;6.686;2022-12-07T01:23:34;5.67;;;3.23;;
13067;SDS011;6600;51.362;6.686;2022-12-07T01:26:01;3.73;;;2.77;;
13067;SDS011;6600;51.362;6.686;2022-12-07T01:28:28;10.07;;;3.83;;
13067;SDS011;6600;51.362;6.686;2022-12-07T01:33:51;3.37;;;3.03;;
13067;SDS011;6600;51.362;6.686;2022-12-07T01:36:18;5.87;;;3.17;;
13067;SDS011;6600;51.362;6.686;2022-12-07T01:38:49;4.07;;;2.23;;
13067;SDS011;6600;51.362;6.686;2022-12-07T01:41:17;3.70;;;3.30;;
13067;SDS011;6600;51.362;6.686;2022-12-07T01:46:40;3.47;;;2.97;;
13067;SDS011;6600;51.362;6.686;2022-12-07T01:52:16;5.20;;;3.60;;
13067;SDS011;6600;51.362;6.686;2022-12-07T01:54:54;5.10;;;3.27;;
13067;SDS011;6600;51.362;6.686;2022-12-07T01:57:24;4.63;;;2.70;;
13067;SDS011;6600;51.362;6.686;2022-12-07T01:59:50;4.17;;;3.23;;
13067;SDS011;6600;51.362;6.686;2022-12-07T02:02:23;2.90;;;2.27;;
13067;SDS011;6600;51.362;6.686;2022-12-07T02:04:53;7.63;;;3.43;;
13067;SDS011;6600;51.362;6.686;2022-12-07T02:07:19;4.83;;;2.60;;
13067;SDS011;6600;51.362;6.686;2022-12-07T02:09:46;4.60;;;3.00;;
13067;SDS011;6600;51.362;6.686;2022-12-07T02:12:11;5.03;;;3.73;;
13067;SDS011;6600;51.362;6.686;2022-12-07T02:14:37;3.70;;;2.40;;
13067;SDS011;6600;51.362;6.686;2022-12-07T02:17:14;5.80;;;3.43;;
13067;SDS011;6600;51.362;6.686;2022-12-07T02:22:42;3.10;;;2.67;;
13067;SDS011;6600;51.362;6.686;2022-12-07T02:28:33;2.73;;;2.50;;
13067;SDS011;6600;51.362;6.686;2022-12-07T02:31:05;5.93;;;2.80;;
13067;SDS011;6600;51.362;6.686;2022-12-07T02:33:36;6.87;;;3.60;;
13067;SDS011;6600;51.362;6.686;2022-12-07T02:36:09;2.40;;;2.20;;
13067;SDS011;6600;51.362;6.686;2022-12-07T02:38:39;2.87;;;2.67;;
13067;SDS011;6600;51.362;6.686;2022-12-07T02:41:14;5.60;;;3.77;;
13067;SDS011;6600;51.362;6.686;2022-12-07T02:43:54;4.20;;;2.80;;
13067;SDS011;6600;51.362;6.686;2022-12-07T02:46:23;4.10;;;2.80;;
13067;SDS011;6600;51.362;6.686;2022-12-07T02:48:54;3.90;;;2.37;;
13067;SDS011;6600;51.362;6.686;2022-12-07T02:51:20;3.17;;;2.40;;
13067;SDS011;6600;51.362;6.686;2022-12-07T02:53:46;6.53;;;3.13;;
13067;SDS011;6600;51.362;6.686;2022-12-07T02:59:02;3.50;;;2.30;;
13067;SDS011;6600;51.362;6.686;2022-12-07T03:07:35;3.43;;;2.27;;
13067;SDS011;6600;51.362;6.686;2022-12-07T03:10:39;3.30;;;2.27;;
13067;SDS011;6600;51.362;6.686;2022-12-07T03:18:16;6.40;;;3.73;;
13067;SDS011;6600;51.362;6.686;2022-12-07T03:20:45;4.63;;;2.83;;
13067;SDS011;6600;51.362;6.686;2022-12-07T03:23:13;2.93;;;2.43;;
13067;SDS011;6600;51.362;6.686;2022-12-07T03:25:42;3.23;;;2.90;;
13067;SDS011;6600;51.362;6.686;2022-12-07T03:28:13;3.43;;;2.67;;
13067;SDS011;6600;51.362;6.686;2022-12-07T03:30:44;2.97;;;2.43;;
13067;SDS011;6600;51.362;6.686;2022-12-07T03:33:25;6.57;;;3.30;;
13067;SDS011;6600;51.362;6.686;2022-12-07T03:38:44;4.17;;;2.67;;
13067;SDS011;6600;51.362;6.686;2022-12-07T03:41:17;1.73;;;1.63;;
13067;SDS011;6600;51.362;6.686;2022-12-07T03:43:47;3.53;;;2.87;;
13067;SDS011;6600;51.362;6.686;2022-12-07T03:49:22;4.47;;;2.30;;
13067;SDS011;6600;51.362;6.686;2022-12-07T03:54:49;5.30;;;3.07;;
13067;SDS011;6600;51.362;6.686;2022-12-07T03:57:21;4.83;;;2.67;;
13067;SDS011;6600;51.362;6.686;2022-12-07T03:59:49;2.67;;;2.20;;
13067;SDS011;6600;51.362;6.686;2022-12-07T04:02:15;5.60;;;3.50;;
13067;SDS011;6600;51.362;6.686;2022-12-07T04:04:41;5.40;;;2.87;;
13067;SDS011;6600;51.362;6.686;2022-12-07T04:07:08;3.80;;;2.57;;
13067;SDS011;6600;51.362;6.686;2022-12-07T04:09:33;3.73;;;1.80;;
13067;SDS011;6600;51.362;6.686;2022-12-07T04:11:59;5.13;;;2.30;;
13067;SDS011;6600;51.362;6.686;2022-12-07T04:14:24;5.00;;;3.30;;
13067;SDS011;6600;51.362;6.686;2022-12-07T04:16:51;3.83;;;2.17;;
13067;SDS011;6600;51.362;6.686;2022-12-07T04:19:18;4.33;;;2.67;;
13067;SDS011;6600;51.362;6.686;2022-12-07T04:21:45;5.90;;;3.03;;
13067;SDS011;6600;51.362;6.686;2022-12-07T04:24:11;6.73;;;3.40;;
13067;SDS011;6600;51.362;6.686;2022-12-07T04:26:38;3.03;;;2.50;;
13067;SDS011;6600;51.362;6.686;2022-12-07T04:29:04;4.93;;;2.80;;
13067;SDS011;6600;51.362;6.686;2022-12-07T04:31:29;3.80;;;2.33;;
13067;SDS011;6600;51.362;6.686;2022-12-07T04:33:55;3.50;;;2.97;;
13067;SDS011;6600;51.362;6.686;2022-12-07T04:36:21;4.57;;;2.87;;
13067;SDS011;6600;51.362;6.686;2022-12-07T04:38:46;2.67;;;1.97;;
13067;SDS011;6600;51.362;6.686;2022-12-07T04:41:12;3.80;;;2.73;;
13067;SDS011;6600;51.362;6.686;2022-12-07T04:43:37;5.80;;;2.80;;
13067;SDS011;6600;51.362;6.686;2022-12-07T04:46:02;5.13;;;2.17;;
13067;SDS011;6600;51.362;6.686;2022-12-07T04:48:28;4.50;;;2.20;;
13067;SDS011;6600;51.362;6.686;2022-12-07T04:50:54;2.33;;;2.07;;
13067;SDS011;6600;51.362;6.686;2022-12-07T04:53:19;2.27;;;1.87;;
13067;SDS011;6600;51.362;6.686;2022-12-07T04:55:45;4.00;;;2.30;;
13067;SDS011;6600;51.362;6.686;2022-12-07T04:58:11;4.20;;;1.97;;
13067;SDS011;6600;51.362;6.686;2022-12-07T05:00:37;4.53;;;2.27;;
13067;SDS011;6600;51.362;6.686;2022-12-07T05:03:02;3.37;;;2.67;;
13067;SDS011;6600;51.362;6.686;2022-12-07T05:05:28;3.37;;;2.63;;
13067;SDS011;6600;51.362;6.686;2022-12-07T05:07:53;3.13;;;2.27;;
13067;SDS011;6600;51.362;6.686;2022-12-07T05:10:19;3.37;;;3.07;;
13067;SDS011;6600;51.362;6.686;2022-12-07T05:12:44;5.00;;;3.07;;
13067;SDS011;6600;51.362;6.686;2022-12-07T05:15:10;5.33;;;1.53;;
13067;SDS011;6600;51.362;6.686;2022-12-07T05:17:36;1.90;;;1.73;;
13067;SDS011;6600;51.362;6.686;2022-12-07T05:20:02;3.00;;;1.73;;
13067;SDS011;6600;51.362;6.686;2022-12-07T05:22:27;1.90;;;1.80;;
13067;SDS011;6600;51.362;6.686;2022-12-07T05:24:55;3.60;;;2.07;;
13067;SDS011;6600;51.362;6.686;2022-12-07T05:27:21;6.13;;;2.37;;
13067;SDS011;6600;51.362;6.686;2022-12-07T05:29:46;3.03;;;2.37;;
13067;SDS011;6600;51.362;6.686;2022-12-07T05:32:12;1.93;;;1.67;;
13067;SDS011;6600;51.362;6.686;2022-12-07T05:34:37;4.03;;;2.23;;
13067;SDS011;6600;51.362;6.686;2022-12-07T05:37:03;3.20;;;2.00;;
13067;SDS011;6600;51.362;6.686;2022-12-07T05:39:28;3.77;;;2.00;;
13067;SDS011;6600;51.362;6.686;2022-12-07T05:41:53;3.60;;;2.27;;
13067;SDS011;6600;51.362;6.686;2022-12-07T05:44:37;3.30;;;2.20;;
13067;SDS011;6600;51.362;6.686;2022-12-07T05:47:11;1.90;;;1.50;;
13067;SDS011;6600;51.362;6.686;2022-12-07T05:49:37;2.93;;;2.60;;
13067;SDS011;6600;51.362;6.686;2022-12-07T05:52:02;5.20;;;2.60;;
13067;SDS011;6600;51.362;6.686;2022-12-07T05:54:28;4.10;;;2.50;;
13067;SDS011;6600;51.362;6.686;2022-12-07T05:56:54;3.93;;;2.43;;
13067;SDS011;6600;51.362;6.686;2022-12-07T05:59:20;2.60;;;1.90;;
13067;SDS011;6600;51.362;6.686;2022-12-07T06:01:51;3.80;;;2.13;;
13067;SDS011;6600;51.362;6.686;2022-12-07T06:04:19;2.27;;;1.40;;
13067;SDS011;6600;51.362;6.686;2022-12-07T06:06:45;2.07;;;1.97;;
13067;SDS011;6600;51.362;6.686;2022-12-07T06:09:11;2.10;;;1.50;;
13067;SDS011;6600;51.362;6.686;2022-12-07T06:11:37;2.27;;;1.73;;
13067;SDS011;6600;51.362;6.686;2022-12-07T06:14:21;3.47;;;2.77;;
13067;SDS011;6600;51.362;6.686;2022-12-07T06:16:47;2.83;;;1.40;;
13067;SDS011;6600;51.362;6.686;2022-12-07T06:19:12;2.50;;;1.50;;
13067;SDS011;6600;51.362;6.686;2022-12-07T06:21:38;2.13;;;1.73;;
13067;SDS011;6600;51.362;6.686;2022-12-07T06:24:03;2.73;;;2.50;;
13067;SDS011;6600;51.362;6.686;2022-12-07T06:26:29;1.23;;;1.13;;
13067;SDS011;6600;51.362;6.686;2022-12-07T06:28:54;3.67;;;3.20;;
13067;SDS011;6600;51.362;6.686;2022-12-07T06:31:20;3.20;;;1.53;;
13067;SDS011;6600;51.362;6.686;2022-12-07T06:33:45;2.10;;;1.80;;
13067;SDS011;6600;51.362;6.686;2022-12-07T06:36:10;5.67;;;1.90;;
13067;SDS011;6600;51.362;6.686;2022-12-07T06:38:36;1.93;;;1.77;;
13067;SDS011;6600;51.362;6.686;2022-12-07T06:41:02;2.17;;;1.50;;
13067;SDS011;6600;51.362;6.686;2022-12-07T06:43:27;5.17;;;2.43;;
13067;SDS011;6600;51.362;6.686;2022-12-07T06:45:54;3.10;;;1.57;;
13067;SDS011;6600;51.362;6.686;2022-12-07T06:48:19;3.60;;;1.53;;
13067;SDS011;6600;51.362;6.686;2022-12-07T06:50:45;2.60;;;1.60;;
13067;SDS011;6600;51.362;6.686;2022-12-07T06:53:11;2.37;;;2.07;;
13067;SDS011;6600;51.362;6.686;2022-12-07T06:55:36;1.70;;;1.53;;
13067;SDS011;6600;51.362;6.686;2022-12-07T06:58:02;3.30;;;1.60;;
13067;SDS011;6600;51.362;6.686;2022-12-07T07:00:28;2.60;;;1.53;;
13067;SDS011;6600;51.362;6.686;2022-12-07T07:02:53;2.20;;;1.63;;
13067;SDS011;6600;51.362;6.686;2022-12-07T07:05:19;2.33;;;1.33;;
13067;SDS011;6600;51.362;6.686;2022-12-07T07:07:46;5.07;;;2.60;;
13067;SDS011;6600;51.362;6.686;2022-12-07T07:10:12;5.23;;;2.00;;
13067;SDS011;6600;51.362;6.686;2022-12-07T07:12:38;1.63;;;1.53;;
13067;SDS011;6600;51.362;6.686;2022-12-07T07:15:03;2.17;;;1.97;;
13067;SDS011;6600;51.362;6.686;2022-12-07T07:17:29;2.50;;;1.27;;
13067;SDS011;6600;51.362;6.686;2022-12-07T07:19:54;1.83;;;1.70;;
13067;SDS011;6600;51.362;6.686;2022-12-07T07:22:20;3.37;;;1.70;;
13067;SDS011;6600;51.362;6.686;2022-12-07T07:24:45;1.60;;;1.50;;
13067;SDS011;6600;51.362;6.686;2022-12-07T07:27:10;6.17;;;1.63;;
13067;SDS011;6600;51.362;6.686;2022-12-07T07:29:36;2.80;;;2.50;;
13067;SDS011;6600;51.362;6.686;2022-12-07T07:32:01;4.20;;;2.07;;
13067;SDS011;6600;51.362;6.686;2022-12-07T07:34:26;1.40;;;1.27;;
13067;SDS011;6600;51.362;6.686;2022-12-07T07:36:52;3.83;;;2.00;;
13067;SDS011;6600;51.362;6.686;2022-12-07T07:39:17;1.63;;;1.43;;
13067;SDS011;6600;51.362;6.686;2022-12-07T07:41:43;3.10;;;2.13;;
13067;SDS011;6600;51.362;6.686;2022-12-07T07:44:09;2.30;;;1.63;;
13067;SDS011;6600;51.362;6.686;2022-12-07T07:46:35;2.23;;;1.73;;
13067;SDS011;6600;51.362;6.686;2022-12-07T07:49:00;4.13;;;1.90;;
13067;SDS011;6600;51.362;6.686;2022-12-07T07:51:25;4.57;;;2.60;;
13067;SDS011;6600;51.362;6.686;2022-12-07T07:53:51;1.57;;;1.47;;
13067;SDS011;6600;51.362;6.686;2022-12-07T07:56:16;1.53;;;1.40;;
13067;SDS011;6600;51.362;6.686;2022-12-07T07:58:41;1.63;;;1.53;;
13067;SDS011;6600;51.362;6.686;2022-12-07T08:01:07;1.87;;;1.77;;
13067;SDS011;6600;51.362;6.686;2022-12-07T08:03:32;2.33;;;1.80;;
13067;SDS011;6600;51.362;6.686;2022-12-07T08:05:58;2.00;;;1.80;;
13067;SDS011;6600;51.362;6.686;2022-12-07T08:08:23;2.60;;;1.83;;
13067;SDS011;6600;51.362;6.686;2022-12-07T08:10:49;2.83;;;1.47;;
13067;SDS011;6600;51.362;6.686;2022-12-07T08:13:15;2.13;;;1.80;;
13067;SDS011;6600;51.362;6.686;2022-12-07T08:15:42;1.57;;;1.37;;
13067;SDS011;6600;51.362;6.686;2022-12-07T08:18:09;1.70;;;1.53;;
13067;SDS011;6600;51.362;6.686;2022-12-07T08:20:36;1.37;;;1.27;;
13067;SDS011;6600;51.362;6.686;2022-12-07T08:23:02;2.27;;;1.50;;
13067;SDS011;6600;51.362;6.686;2022-12-07T08:25:28;2.97;;;1.97;;
13067;SDS011;6600;51.362;6.686;2022-12-07T08:27:54;2.50;;;2.13;;
13067;SDS011;6600;51.362;6.686;2022-12-07T08:30:20;1.00;;;0.87;;
13067;SDS011;6600;51.362;6.686;2022-12-07T08:32:47;6.67;;;2.00;;
13067;SDS011;6600;51.362;6.686;2022-12-07T08:35:13;3.43;;;2.23;;
13067;SDS011;6600;51.362;6.686;2022-12-07T08:37:38;2.30;;;1.67;;
13067;SDS011;6600;51.362;6.686;2022-12-07T08:40:04;1.33;;;1.23;;
13067;SDS011;6600;51.362;6.686;2022-12-07T08:42:31;4.43;;;1.40;;
13067;SDS011;6600;51.362;6.686;2022-12-07T08:45:03;1.97;;;1.87;;
13067;SDS011;6600;51.362;6.686;2022-12-07T08:47:33;2.40;;;1.13;;
13067;SDS011;6600;51.362;6.686;2022-12-07T08:50:01;1.20;;;1.00;;
13067;SDS011;6600;51.362;6.686;2022-12-07T08:52:29;2.13;;;1.40;;
13067;SDS011;6600;51.362;6.686;2022-12-07T08:54:55;2.70;;;1.70;;
13067;SDS011;6600;51.362;6.686;2022-12-07T08:57:21;3.67;;;1.90;;
13067;SDS011;6600;51.362;6.686;2022-12-07T08:59:46;3.47;;;1.40;;
13067;SDS011;6600;51.362;6.686;2022-12-07T09:02:11;1.70;;;1.20;;
13067;SDS011;6600;51.362;6.686;2022-12-07T09:04:37;3.83;;;1.87;;
13067;SDS011;6600;51.362;6.686;2022-12-07T09:07:02;1.70;;;1.60;;
13067;SDS011;6600;51.362;6.686;2022-12-07T09:09:28;2.10;;;1.63;;
13067;SDS011;6600;51.362;6.686;2022-12-07T09:11:54;1.67;;;1.57;;
13067;SDS011;6600;51.362;6.686;2022-12-07T09:14:20;4.53;;;1.97;;
13067;SDS011;6600;51.362;6.686;2022-12-07T09:16:46;1.70;;;1.50;;
13067;SDS011;6600;51.362;6.686;2022-12-07T09:19:11;2.57;;;1.97;;
13067;SDS011;6600;51.362;6.686;2022-12-07T09:21:37;2.30;;;1.07;;
13067;SDS011;6600;51.362;6.686;2022-12-07T09:24:02;1.70;;;1.60;;
13067;SDS011;6600;51.362;6.686;2022-12-07T09:26:28;1.30;;;1.20;;
13067;SDS011;6600;51.362;6.686;2022-12-07T09:28:53;4.77;;;1.43;;
13067;SDS011;6600;51.362;6.686;2022-12-07T09:31:18;2.37;;;1.67;;
13067;SDS011;6600;51.362;6.686;2022-12-07T09:33:43;2.43;;;1.30;;
13067;SDS011;6600;51.362;6.686;2022-12-07T09:36:09;1.63;;;1.37;;
13067;SDS011;6600;51.362;6.686;2022-12-07T09:38:35;2.23;;;1.67;;
13067;SDS011;6600;51.362;6.686;2022-12-07T09:41:04;1.40;;;1.30;;
13067;SDS011;6600;51.362;6.686;2022-12-07T09:43:33;1.30;;;1.20;;
13067;SDS011;6600;51.362;6.686;2022-12-07T09:46:00;2.03;;;1.43;;
13067;SDS011;6600;51.362;6.686;2022-12-07T09:48:29;3.73;;;1.07;;
13067;SDS011;6600;51.362;6.686;2022-12-07T09:50:57;1.70;;;1.60;;
13067;SDS011;6600;51.362;6.686;2022-12-07T09:53:29;1.53;;;1.37;;
13067;SDS011;6600;51.362;6.686;2022-12-07T09:55:57;1.93;;;1.10;;
13067;SDS011;6600;51.362;6.686;2022-12-07T09:58:24;1.20;;;1.13;;
13067;SDS011;6600;51.362;6.686;2022-12-07T10:00:59;1.33;;;1.07;;
13067;SDS011;6600;51.362;6.686;2022-12-07T10:03:30;2.03;;;1.93;;
13067;SDS011;6600;51.362;6.686;2022-12-07T10:05:55;2.03;;;1.67;;
13067;SDS011;6600;51.362;6.686;2022-12-07T10:08:22;2.33;;;2.10;;
13067;SDS011;6600;51.362;6.686;2022-12-07T10:10:51;1.73;;;1.10;;
13067;SDS011;6600;51.362;6.686;2022-12-07T10:13:22;1.70;;;1.40;;
13067;SDS011;6600;51.362;6.686;2022-12-07T10:15:59;1.67;;;1.50;;
13067;SDS011;6600;51.362;6.686;2022-12-07T10:21:06;4.73;;;2.77;;
13067;SDS011;6600;51.362;6.686;2022-12-07T10:23:36;2.87;;;2.57;;
13067;SDS011;6600;51.362;6.686;2022-12-07T10:26:38;3.23;;;2.23;;
13067;SDS011;6600;51.362;6.686;2022-12-07T10:31:49;3.63;;;2.40;;
13067;SDS011;6600;51.362;6.686;2022-12-07T10:34:23;4.63;;;3.00;;
13067;SDS011;6600;51.362;6.686;2022-12-07T10:36:51;4.47;;;2.43;;
13067;SDS011;6600;51.362;6.686;2022-12-07T10:39:19;2.63;;;2.23;;
13067;SDS011;6600;51.362;6.686;2022-12-07T10:41:52;2.47;;;1.93;;
13067;SDS011;6600;51.362;6.686;2022-12-07T10:44:25;3.30;;;1.77;;
13067;SDS011;6600;51.362;6.686;2022-12-07T10:46:54;3.60;;;1.67;;
13067;SDS011;6600;51.362;6.686;2022-12-07T10:52:27;3.37;;;2.13;;
13067;SDS011;6600;51.362;6.686;2022-12-07T11:00:09;1.33;;;1.23;;
13067;SDS011;6600;51.362;6.686;2022-12-07T11:10:56;1.30;;;1.10;;
13067;SDS011;6600;51.362;6.686;2022-12-07T11:13:55;2.10;;;1.33;;
13067;SDS011;6600;51.362;6.686;2022-12-07T11:24:30;1.60;;;1.00;;
13067;SDS011;6600;51.362;6.686;2022-12-07T11:27:24;2.37;;;1.37;;
13067;SDS011;6600;51.362;6.686;2022-12-07T11:30:19;1.03;;;0.70;;
13067;SDS011;6600;51.362;6.686;2022-12-07T11:32:59;2.10;;;1.17;;
13067;SDS011;6600;51.362;6.686;2022-12-07T11:37:57;1.10;;;1.00;;
13067;SDS011;6600;51.362;6.686;2022-12-07T11:40:30;2.03;;;1.63;;
13067;SDS011;6600;51.362;6.686;2022-12-07T11:43:05;2.83;;;1.00;;
13067;SDS011;6600;51.362;6.686;2022-12-07T11:45:42;1.40;;;1.07;;
13067;SDS011;6600;51.362;6.686;2022-12-07T11:50:59;3.20;;;0.97;;
13067;SDS011;6600;51.362;6.686;2022-12-07T11:53:27;1.77;;;0.90;;
13067;SDS011;6600;51.362;6.686;2022-12-07T11:55:57;1.73;;;1.30;;
13067;SDS011;6600;51.362;6.686;2022-12-07T12:01:11;1.70;;;1.37;;
13067;SDS011;6600;51.362;6.686;2022-12-07T12:03:38;1.43;;;1.03;;
13067;SDS011;6600;51.362;6.686;2022-12-07T12:06:08;0.93;;;0.70;;
13067;SDS011;6600;51.362;6.686;2022-12-07T12:08:39;0.70;;;0.70;;
13067;SDS011;6600;51.362;6.686;2022-12-07T12:21:38;0.73;;;0.73;;
13067;SDS011;6600;51.362;6.686;2022-12-07T12:24:05;3.17;;;1.20;;
13067;SDS011;6600;51.362;6.686;2022-12-07T12:26:41;0.80;;;0.80;;
13067;SDS011;6600;51.362;6.686;2022-12-07T12:32:04;0.70;;;0.67;;
13067;SDS011;6600;51.362;6.686;2022-12-07T12:42:49;0.50;;;0.50;;
13067;SDS011;6600;51.362;6.686;2022-12-07T12:45:19;1.07;;;0.77;;
13067;SDS011;6600;51.362;6.686;2022-12-07T12:47:53;2.07;;;0.73;;
13067;SDS011;6600;51.362;6.686;2022-12-07T12:50:22;1.43;;;1.00;;
13067;SDS011;6600;51.362;6.686;2022-12-07T12:52:58;2.37;;;1.13;;
13067;SDS011;6600;51.362;6.686;2022-12-07T13:00:47;1.93;;;1.73;;
13067;SDS011;6600;51.362;6.686;2022-12-07T13:03:22;1.30;;;0.83;;
13067;SDS011;6600;51.362;6.686;2022-12-07T13:06:17;0.80;;;0.80;;
13067;SDS011;6600;51.362;6.686;2022-12-07T13:08:44;1.73;;;0.90;;
13067;SDS011;6600;51.362;6.686;2022-12-07T13:11:17;0.57;;;0.53;;
13067;SDS011;6600;51.362;6.686;2022-12-07T13:13:45;3.50;;;0.97;;
13067;SDS011;6600;51.362;6.686;2022-12-07T13:18:38;0.60;;;0.60;;
13067;SDS011;6600;51.362;6.686;2022-12-07T13:28:44;0.50;;;0.50;;
13067;SDS011;6600;51.362;6.686;2022-12-07T13:36:58;0.80;;;0.50;;
13067;SDS011;6600;51.362;6.686;2022-12-07T13:39:27;3.47;;;0.80;;
13067;SDS011;6600;51.362;6.686;2022-12-07T13:41:53;0.53;;;0.40;;
13067;SDS011;6600;51.362;6.686;2022-12-07T13:44:24;0.67;;;0.67;;
13067;SDS011;6600;51.362;6.686;2022-12-07T13:49:44;0.30;;;0.30;;
13067;SDS011;6600;51.362;6.686;2022-12-07T13:52:16;0.30;;;0.30;;
13067;SDS011;6600;51.362;6.686;2022-12-07T13:57:21;0.70;;;0.70;;
13067;SDS011;6600;51.362;6.686;2022-12-07T13:59:47;0.30;;;0.30;;
13067;SDS011;6600;51.362;6.686;2022-12-07T14:02:29;1.30;;;0.57;;
13067;SDS011;6600;51.362;6.686;2022-12-07T14:08:21;1.00;;;0.57;;
13067;SDS011;6600;51.362;6.686;2022-12-07T14:16:54;0.40;;;0.40;;
13067;SDS011;6600;51.362;6.686;2022-12-07T14:18:55;2.93;;;0.70;;
13067;SDS011;6600;51.362;6.686;2022-12-07T14:21:23;0.87;;;0.53;;
13067;SDS011;6600;51.362;6.686;2022-12-07T14:26:48;0.30;;;0.30;;
13067;SDS011;6600;51.362;6.686;2022-12-07T14:31:53;1.63;;;0.97;;
13067;SDS011;6600;51.362;6.686;2022-12-07T14:34:20;0.53;;;0.40;;
13067;SDS011;6600;51.362;6.686;2022-12-07T14:36:46;1.83;;;0.60;;
13067;SDS011;6600;51.362;6.686;2022-12-07T14:39:12;2.80;;;0.80;;
13067;SDS011;6600;51.362;6.686;2022-12-07T14:41:37;1.73;;;1.00;;
13067;SDS011;6600;51.362;6.686;2022-12-07T14:44:18;1.10;;;1.00;;
13067;SDS011;6600;51.362;6.686;2022-12-07T14:46:46;3.93;;;2.30;;
13067;SDS011;6600;51.362;6.686;2022-12-07T14:49:12;10.10;;;3.97;;
13067;SDS011;6600;51.362;6.686;2022-12-07T14:51:38;3.27;;;2.73;;
13067;SDS011;6600;51.362;6.686;2022-12-07T14:54:06;3.00;;;1.40;;
13067;SDS011;6600;51.362;6.686;2022-12-07T14:56:37;3.07;;;1.20;;
13067;SDS011;6600;51.362;6.686;2022-12-07T14:59:03;3.33;;;1.30;;
13067;SDS011;6600;51.362;6.686;2022-12-07T15:01:28;1.47;;;1.30;;
13067;SDS011;6600;51.362;6.686;2022-12-07T15:03:53;1.20;;;1.10;;
13067;SDS011;6600;51.362;6.686;2022-12-07T15:06:18;1.27;;;1.00;;
13067;SDS011;6600;51.362;6.686;2022-12-07T15:08:44;4.33;;;1.17;;
13067;SDS011;6600;51.362;6.686;2022-12-07T15:11:13;0.83;;;0.80;;
13067;SDS011;6600;51.362;6.686;2022-12-07T15:13:39;1.97;;;1.23;;
13067;SDS011;6600;51.362;6.686;2022-12-07T15:16:23;2.67;;;1.73;;
13067;SDS011;6600;51.362;6.686;2022-12-07T15:18:48;1.20;;;1.10;;
13067;SDS011;6600;51.362;6.686;2022-12-07T15:21:14;0.87;;;0.63;;
13067;SDS011;6600;51.362;6.686;2022-12-07T15:23:40;2.20;;;0.87;;
13067;SDS011;6600;51.362;6.686;2022-12-07T15:26:06;2.83;;;1.50;;
13067;SDS011;6600;51.362;6.686;2022-12-07T15:28:32;3.37;;;1.77;;
13067;SDS011;6600;51.362;6.686;2022-12-07T15:30:58;2.83;;;2.00;;
13067;SDS011;6600;51.362;6.686;2022-12-07T15:33:23;2.47;;;1.63;;
13067;SDS011;6600;51.362;6.686;2022-12-07T15:35:49;2.73;;;1.93;;
13067;SDS011;6600;51.362;6.686;2022-12-07T15:38:14;4.37;;;1.17;;
13067;SDS011;6600;51.362;6.686;2022-12-07T15:40:39;0.97;;;0.97;;
13067;SDS011;6600;51.362;6.686;2022-12-07T15:43:05;2.27;;;1.00;;
13067;SDS011;6600;51.362;6.686;2022-12-07T15:45:50;1.47;;;1.17;;
13067;SDS011;6600;51.362;6.686;2022-12-07T15:48:15;1.17;;;0.80;;
13067;SDS011;6600;51.362;6.686;2022-12-07T15:50:41;4.37;;;0.90;;
13067;SDS011;6600;51.362;6.686;2022-12-07T15:53:06;0.90;;;0.90;;
13067;SDS011;6600;51.362;6.686;2022-12-07T15:55:31;1.17;;;1.07;;
13067;SDS011;6600;51.362;6.686;2022-12-07T15:57:56;1.30;;;1.20;;
13067;SDS011;6600;51.362;6.686;2022-12-07T16:00:22;1.97;;;1.10;;
13067;SDS011;6600;51.362;6.686;2022-12-07T16:02:47;2.53;;;1.33;;
13067;SDS011;6600;51.362;6.686;2022-12-07T16:05:12;2.10;;;1.07;;
13067;SDS011;6600;51.362;6.686;2022-12-07T16:07:38;1.40;;;1.30;;
13067;SDS011;6600;51.362;6.686;2022-12-07T16:10:03;1.20;;;1.10;;
13067;SDS011;6600;51.362;6.686;2022-12-07T16:12:29;2.07;;;1.10;;
13067;SDS011;6600;51.362;6.686;2022-12-07T16:14:54;1.43;;;1.30;;
13067;SDS011;6600;51.362;6.686;2022-12-07T16:17:19;1.67;;;0.90;;
13067;SDS011;6600;51.362;6.686;2022-12-07T16:19:45;0.93;;;0.93;;
13067;SDS011;6600;51.362;6.686;2022-12-07T16:22:10;1.00;;;0.83;;
13067;SDS011;6600;51.362;6.686;2022-12-07T16:24:35;2.93;;;1.77;;
13067;SDS011;6600;51.362;6.686;2022-12-07T16:27:01;1.93;;;1.83;;
13067;SDS011;6600;51.362;6.686;2022-12-07T16:29:26;1.63;;;1.10;;
13067;SDS011;6600;51.362;6.686;2022-12-07T16:31:51;1.47;;;1.30;;
13067;SDS011;6600;51.362;6.686;2022-12-07T16:34:17;1.53;;;0.93;;
13067;SDS011;6600;51.362;6.686;2022-12-07T16:36:43;1.30;;;1.03;;
13067;SDS011;6600;51.362;6.686;2022-12-07T16:39:09;2.53;;;1.83;;
13067;SDS011;6600;51.362;6.686;2022-12-07T16:41:35;1.70;;;0.80;;
13067;SDS011;6600;51.362;6.686;2022-12-07T16:44:01;1.87;;;1.53;;
13067;SDS011;6600;51.362;6.686;2022-12-07T16:46:28;1.47;;;1.33;;
13067;SDS011;6600;51.362;6.686;2022-12-07T16:48:53;0.87;;;0.87;;
13067;SDS011;6600;51.362;6.686;2022-12-07T16:51:19;2.63;;;1.47;;
13067;SDS011;6600;51.362;6.686;2022-12-07T16:53:44;4.33;;;1.60;;
13067;SDS011;6600;51.362;6.686;2022-12-07T16:56:10;1.43;;;1.33;;
13067;SDS011;6600;51.362;6.686;2022-12-07T16:58:37;2.27;;;1.03;;
13067;SDS011;6600;51.362;6.686;2022-12-07T17:01:12;2.13;;;1.10;;
13067;SDS011;6600;51.362;6.686;2022-12-07T17:03:40;1.20;;;1.17;;
13067;SDS011;6600;51.362;6.686;2022-12-07T17:06:12;1.67;;;1.57;;
13067;SDS011;6600;51.362;6.686;2022-12-07T17:08:42;2.27;;;1.60;;
13067;SDS011;6600;51.362;6.686;2022-12-07T17:11:15;4.43;;;1.90;;
13067;SDS011;6600;51.362;6.686;2022-12-07T17:13:42;2.00;;;1.77;;
13067;SDS011;6600;51.362;6.686;2022-12-07T17:16:26;2.13;;;1.33;;
13067;SDS011;6600;51.362;6.686;2022-12-07T17:18:52;1.77;;;1.47;;
13067;SDS011;6600;51.362;6.686;2022-12-07T17:21:17;2.27;;;1.97;;
13067;SDS011;6600;51.362;6.686;2022-12-07T17:23:43;2.50;;;2.00;;
13067;SDS011;6600;51.362;6.686;2022-12-07T17:26:13;1.50;;;1.33;;
13067;SDS011;6600;51.362;6.686;2022-12-07T17:28:41;1.90;;;1.80;;